Time;durP1;ratioP1;P1;durP2;ratioP2;P2;SDS_P1;SDS_P2;PMS_P1;PMS_P2;Temp;Humidity;BMP_temperature;BMP_pressure;BME280_temperature;BME280_humidity;BME280_pressure;Samples;Min_cycle;Max_cycle;Signal;HPM_P1;HPM_P2
2022/01/05 00:01:03;;;;;;;0.37;0.10;;;7.40;99.90;;;;;;1938514;73;21054;-83
2022/01/05 00:03:55;;;;;;;0.25;0.10;;;7.30;99.90;;;;;;1918885;73;21066;-84
2022/01/05 00:06:47;;;;;;;0.13;0.10;;;7.10;99.90;;;;;;1939840;73;21156;-84
2022/01/05 00:09:38;;;;;;;1.55;0.23;;;6.90;99.90;;;;;;1918978;73;21146;-85
2022/01/05 00:12:30;;;;;;;1.20;0.10;;;6.80;99.90;;;;;;1917533;75;21109;-87
2022/01/05 00:15:21;;;;;;;1.20;0.10;;;6.70;99.90;;;;;;1940473;73;21151;-89
2022/01/05 00:20:56;;;;;;;0.33;0.13;;;6.50;99.90;;;;;;1964936;72;22254;-89
2022/01/05 00:26:27;;;;;;;0.35;0.10;;;6.30;99.90;;;;;;1954429;72;22107;-89
2022/01/05 00:29:19;;;;;;;0.10;0.10;;;6.20;99.90;;;;;;1907396;75;21086;-88
2022/01/05 00:32:11;;;;;;;0.37;0.10;;;6.10;99.90;;;;;;1896137;75;21084;-88
2022/01/05 00:35:03;;;;;;;1.65;0.20;;;6.10;99.90;;;;;;1907612;75;21063;-87
2022/01/05 00:38:13;;;;;;;0.10;0.10;;;6.00;99.90;;;;;;1909629;75;21075;-88
2022/01/05 00:41:05;;;;;;;0.05;0.05;;;5.90;99.90;;;;;;1895516;75;21121;-87
2022/01/05 00:46:39;;;;;;;0.10;0.10;;;5.70;99.90;;;;;;1934981;72;22123;-88
2022/01/05 00:49:31;;;;;;;0.13;0.10;;;5.60;99.90;;;;;;1883526;75;21233;-87
2022/01/05 00:52:23;;;;;;;0.23;0.10;;;5.50;99.90;;;;;;1875215;75;21095;-88
2022/01/05 00:55:38;;;;;;;0.45;0.05;;;5.50;99.90;;;;;;1953186;72;26472;-86
2022/01/05 01:01:09;;;;;;;0.10;0.10;;;5.30;99.90;;;;;;1945358;72;22265;-86
2022/01/05 01:04:01;;;;;;;0.10;0.10;;;5.30;99.90;;;;;;1900002;75;21581;-88
2022/01/05 01:06:53;;;;;;;0.10;0.10;;;5.30;99.90;;;;;;1904296;75;21080;-88
2022/01/05 01:09:46;;;;;;;0.78;0.10;;;5.30;99.90;;;;;;1902991;75;21541;-87
2022/01/05 01:12:55;;;;;;;0.13;0.10;;;5.30;99.90;;;;;;1897956;75;21088;-87
2022/01/05 01:15:47;;;;;;;0.00;0.00;;;5.20;99.90;;;;;;1909431;75;21113;-87
2022/01/05 01:18:39;;;;;;;0.42;0.10;;;5.10;99.90;;;;;;1888261;75;21120;-85
2022/01/05 01:21:31;;;;;;;1.37;0.10;;;5.10;99.90;;;;;;1904775;75;21111;-85
2022/01/05 01:24:22;;;;;;;0.00;0.00;;;5.20;99.90;;;;;;1907770;75;21119;-85
2022/01/05 01:27:14;;;;;;;0.88;0.10;;;5.30;99.90;;;;;;1895592;75;21038;-85
2022/01/05 01:30:08;;;;;;;0.00;0.00;;;5.30;99.90;;;;;;1905856;75;21141;-85
2022/01/05 01:33:00;;;;;;;0.20;0.05;;;5.30;99.90;;;;;;1870641;76;21112;-84
2022/01/05 01:35:52;;;;;;;1.37;0.10;;;5.40;99.90;;;;;;1899987;75;21144;-85
2022/01/05 01:41:25;;;;;;;0.10;0.10;;;5.20;99.90;;;;;;1948331;72;22299;-85
2022/01/05 01:44:18;;;;;;;0.75;0.00;;;5.10;99.90;;;;;;1904791;75;21095;-85
2022/01/05 01:47:10;;;;;;;0.20;0.10;;;5.10;99.90;;;;;;1901064;75;21082;-85
2022/01/05 01:52:44;;;;;;;0.03;0.03;;;4.90;99.90;;;;;;1948891;72;22226;-86
2022/01/05 01:55:35;;;;;;;0.10;0.10;;;4.90;99.90;;;;;;1918418;73;21062;-86
2022/01/05 02:01:07;;;;;;;0.15;0.08;;;4.90;99.90;;;;;;1941577;72;22447;-86
2022/01/05 02:03:59;;;;;;;0.30;0.10;;;4.90;99.90;;;;;;1906815;73;21074;-86
2022/01/05 02:06:51;;;;;;;0.00;0.00;;;4.80;99.90;;;;;;1910193;73;21062;-86
2022/01/05 02:09:43;;;;;;;0.68;0.10;;;4.80;99.90;;;;;;1917167;73;21128;-86
2022/01/05 02:15:32;;;;;;;0.53;0.10;;;4.80;99.90;;;;;;1952545;72;22256;-86
2022/01/05 02:21:37;;;;;;;1.85;0.10;;;4.70;99.90;;;;;;1895454;75;21051;-85
2022/01/05 02:24:28;;;;;;;0.15;0.10;;;4.60;99.90;;;;;;1892897;75;21156;-85
2022/01/05 02:30:26;;;;;;;0.50;0.30;;;4.60;99.90;;;;;;1943686;72;22243;-86
2022/01/05 02:34:36;;;;;;;0.50;0.28;;;4.50;99.90;;;;;;1949827;72;26328;-85
2022/01/05 02:37:29;;;;;;;0.20;0.10;;;4.50;99.90;;;;;;1902414;75;21055;-85
2022/01/05 02:40:24;;;;;;;0.90;0.20;;;4.50;99.90;;;;;;1917664;75;21054;-85
2022/01/05 02:45:55;;;;;;;1.35;0.30;;;4.40;99.90;;;;;;1944522;72;22135;-85
2022/01/05 02:51:26;;;;;;;0.60;0.10;;;4.50;99.90;;;;;;1942391;72;22169;-86
2022/01/05 02:54:17;;;;;;;0.10;0.10;;;4.40;99.90;;;;;;1922693;74;21144;-85
2022/01/05 02:57:09;;;;;;;0.45;0.17;;;4.40;99.90;;;;;;1917427;74;21065;-85
2022/01/05 03:00:01;;;;;;;0.53;0.33;;;4.40;99.90;;;;;;1918612;74;21143;-85
2022/01/05 03:05:51;;;;;;;0.70;0.10;;;4.30;99.90;;;;;;1946445;72;22271;-83
2022/01/05 03:08:43;;;;;;;0.20;0.10;;;4.30;99.90;;;;;;1897209;74;21155;-85
2022/01/05 03:14:15;;;;;;;0.42;0.10;;;4.30;99.90;;;;;;1956412;72;22242;-85
2022/01/05 03:17:06;;;;;;;0.10;0.10;;;4.30;99.90;;;;;;1917396;75;21113;-84
2022/01/05 03:19:58;;;;;;;0.10;0.10;;;4.30;99.90;;;;;;1907132;75;21175;-85
2022/01/05 03:25:27;;;;;;;0.10;0.10;;;4.30;99.90;;;;;;1948511;72;22227;-85
2022/01/05 03:28:20;;;;;;;0.10;0.10;;;4.30;99.90;;;;;;1906428;75;21164;-85
2022/01/05 03:31:12;;;;;;;0.30;0.10;;;4.20;99.90;;;;;;1885761;75;21059;-85
2022/01/05 03:36:41;;;;;;;0.10;0.10;;;4.30;99.90;;;;;;1958375;72;22327;-85
2022/01/05 03:39:32;;;;;;;0.20;0.20;;;4.30;99.90;;;;;;1915438;75;21040;-85
2022/01/05 03:42:26;;;;;;;0.95;0.20;;;4.20;99.90;;;;;;1867352;76;21101;-85
2022/01/05 03:45:18;;;;;;;0.75;0.25;;;4.30;99.90;;;;;;1898751;75;21142;-84
2022/01/05 03:48:28;;;;;;;0.35;0.20;;;4.30;99.90;;;;;;1907829;74;21088;-85
2022/01/05 03:51:20;;;;;;;0.78;0.30;;;4.40;99.90;;;;;;1899752;75;21054;-83
2022/01/05 03:54:11;;;;;;;2.33;0.40;;;4.30;99.90;;;;;;1895977;75;21043;-83
2022/01/05 03:57:03;;;;;;;0.53;0.25;;;4.30;99.90;;;;;;1906261;75;21047;-84
2022/01/05 03:59:55;;;;;;;9.53;0.65;;;4.40;99.90;;;;;;1910962;75;21617;-83
2022/01/05 04:05:28;;;;;;;0.30;0.20;;;4.60;99.90;;;;;;1933373;72;22178;-84
2022/01/05 04:10:59;;;;;;;1.22;0.20;;;4.50;99.90;;;;;;1953731;72;22173;-81
2022/01/05 04:13:50;;;;;;;0.95;0.25;;;4.40;99.90;;;;;;1932026;73;21130;-83
2022/01/05 04:16:42;;;;;;;0.68;0.28;;;4.50;99.90;;;;;;1895492;73;21100;-84
2022/01/05 04:19:35;;;;;;;2.52;0.33;;;4.50;99.90;;;;;;1938558;73;21076;-83
2022/01/05 04:25:25;;;;;;;0.20;0.10;;;4.50;99.90;;;;;;1949210;72;22244;-83
2022/01/05 04:28:17;;;;;;;1.27;0.20;;;4.40;99.90;;;;;;1906960;75;21101;-84
2022/01/05 04:36:30;;;;;;;0.10;0.10;;;4.40;99.90;;;;;;1948889;72;22229;-82
2022/01/05 04:42:00;;;;;;;0.40;0.23;;;4.50;99.90;;;;;;1963782;72;22153;-82
2022/01/05 04:44:51;;;;;;;0.50;0.30;;;4.50;99.90;;;;;;1910730;73;21390;-82
2022/01/05 04:50:22;;;;;;;0.78;0.25;;;4.50;99.90;;;;;;1958990;72;22182;-82
2022/01/05 04:55:51;;;;;;;0.23;0.23;;;4.40;99.90;;;;;;1954387;72;22134;-83
2022/01/05 04:58:42;;;;;;;0.78;0.35;;;4.40;99.90;;;;;;1905421;75;21150;-81
2022/01/05 05:01:35;;;;;;;0.35;0.30;;;4.30;99.90;;;;;;1905166;75;21131;-81
2022/01/05 05:04:27;;;;;;;0.42;0.30;;;4.40;99.90;;;;;;1904956;74;21059;-81
2022/01/05 05:07:37;;;;;;;1.92;0.30;;;4.40;99.90;;;;;;1905038;75;21124;-81
2022/01/05 05:10:28;;;;;;;0.30;0.23;;;4.40;99.90;;;;;;1905070;75;21162;-82
2022/01/05 05:13:20;;;;;;;0.47;0.30;;;4.40;99.90;;;;;;1905212;75;21075;-81
2022/01/05 05:16:11;;;;;;;0.35;0.20;;;4.40;99.90;;;;;;1905013;75;21086;-80
2022/01/05 05:21:43;;;;;;;0.70;0.30;;;4.40;99.90;;;;;;1950931;72;22190;-81
2022/01/05 05:24:35;;;;;;;0.30;0.30;;;4.50;99.90;;;;;;1909029;75;21080;-81
2022/01/05 05:27:26;;;;;;;0.50;0.30;;;4.60;99.90;;;;;;1905507;75;21095;-81
2022/01/05 05:30:19;;;;;;;0.37;0.30;;;4.60;99.90;;;;;;1913805;75;21098;-81
2022/01/05 05:36:12;;;;;;;0.60;0.30;;;4.60;99.90;;;;;;1953202;72;22111;-80
2022/01/05 06:24:31;;;;;;;5.03;3.58;;;4.70;99.90;;;;;;1937435;72;27464;-91
2022/01/05 06:38:29;;;;;;;1.90;1.15;;;5.30;99.90;;;;;;1937920;72;27086;-83
2022/01/05 06:41:20;;;;;;;1.12;0.80;;;5.30;99.90;;;;;;1886963;75;21167;-83
2022/01/05 06:46:54;;;;;;;1.10;0.57;;;5.40;99.90;;;;;;1954651;72;22135;-82
2022/01/05 06:49:46;;;;;;;1.10;0.50;;;5.40;99.90;;;;;;1895653;74;21174;-82
2022/01/05 06:52:38;;;;;;;0.30;0.30;;;5.40;99.90;;;;;;1906499;75;21106;-81
2022/01/05 06:55:30;;;;;;;2.27;1.60;;;5.40;99.90;;;;;;1905500;75;21126;-81
2022/01/05 07:01:19;;;;;;;1.85;1.32;;;5.50;99.90;;;;;;1963223;72;22199;-81
2022/01/05 07:04:11;;;;;;;0.23;0.20;;;5.50;99.90;;;;;;1925568;73;21063;-82
2022/01/05 07:07:03;;;;;;;0.60;0.50;;;5.40;99.90;;;;;;1917470;75;21087;-82
2022/01/05 07:09:59;;;;;;;2.47;1.98;;;5.30;99.90;;;;;;1917273;75;21172;-81
2022/01/05 07:13:10;;;;;;;0.82;0.53;;;5.40;99.90;;;;;;1917913;73;21099;-82
2022/01/05 07:16:03;;;;;;;0.88;0.47;;;5.50;99.90;;;;;;1924908;74;21169;-82
2022/01/05 07:18:54;;;;;;;0.95;0.50;;;5.50;99.90;;;;;;1932034;73;21087;-82
2022/01/05 07:21:48;;;;;;;1.10;0.30;;;5.40;99.90;;;;;;1925805;73;21054;-86
2022/01/05 07:24:40;;;;;;;0.55;0.40;;;5.30;99.90;;;;;;1928755;73;21219;-85
2022/01/05 07:27:31;;;;;;;0.57;0.30;;;5.30;99.90;;;;;;1931140;73;21075;-85
2022/01/05 07:30:23;;;;;;;0.47;0.47;;;5.20;99.90;;;;;;1938338;73;21123;-86
2022/01/05 07:33:14;;;;;;;1.70;0.62;;;5.20;99.90;;;;;;1923664;73;21143;-87
2022/01/05 07:36:06;;;;;;;0.88;0.42;;;5.30;99.90;;;;;;1939036;73;21075;-87
2022/01/05 07:41:38;;;;;;;0.60;0.40;;;5.50;99.90;;;;;;1944429;72;22262;-86
2022/01/05 07:44:30;;;;;;;1.00;0.60;;;5.60;99.90;;;;;;1911852;74;21164;-87
2022/01/05 07:47:22;;;;;;;1.15;0.50;;;5.70;99.90;;;;;;1905358;75;21106;-87
2022/01/05 07:55:35;;;;;;;0.30;0.30;;;5.70;99.90;;;;;;1946525;72;22318;-88
2022/01/05 07:58:29;;;;;;;0.40;0.30;;;5.70;99.90;;;;;;1873960;76;21123;-89
2022/01/05 08:01:20;;;;;;;1.17;0.33;;;5.70;99.90;;;;;;1884159;75;21143;-90
2022/01/05 08:06:59;;;;;;;1.57;0.37;;;5.40;99.90;;;;;;1952486;72;22071;-88
2022/01/05 08:09:51;;;;;;;0.37;0.30;;;5.40;99.90;;;;;;1904972;75;21072;-88
2022/01/05 08:15:25;;;;;;;0.70;0.30;;;5.30;99.90;;;;;;1970507;72;22112;-88
2022/01/05 08:21:04;;;;;;;2.02;0.55;;;5.30;99.90;;;;;;1947014;72;22141;-87
2022/01/05 08:23:57;;;;;;;1.12;0.50;;;5.40;99.90;;;;;;1883960;74;21198;-87
2022/01/05 08:26:50;;;;;;;0.80;0.57;;;5.40;99.90;;;;;;1905940;75;21070;-88
2022/01/05 08:32:57;;;;;;;1.07;0.50;;;5.40;99.90;;;;;;1976514;72;22120;-91
2022/01/05 08:35:51;;;;;;;1.40;0.90;;;5.40;99.90;;;;;;1921280;73;21059;-91
2022/01/05 08:41:23;;;;;;;3.15;1.07;;;5.10;99.90;;;;;;1954065;72;22132;-93
2022/01/05 08:46:56;;;;;;;4.33;1.20;;;4.80;99.90;;;;;;1958023;72;22096;-91
2022/01/05 08:49:48;;;;;;;2.52;0.85;;;4.80;99.90;;;;;;1907067;75;21079;-90
2022/01/05 08:52:39;;;;;;;1.92;0.68;;;4.70;99.90;;;;;;1894120;75;21148;-90
2022/01/05 08:58:14;;;;;;;1.87;0.78;;;4.60;99.90;;;;;;1970932;72;22269;-90
2022/01/05 09:01:10;;;;;;;1.65;0.40;;;4.70;99.90;;;;;;1917767;75;21546;-90
2022/01/05 09:04:02;;;;;;;0.50;0.35;;;4.70;99.90;;;;;;1940390;73;21054;-89
2022/01/05 09:07:10;;;;;;;0.33;0.30;;;4.40;99.90;;;;;;1917285;75;21086;-89
2022/01/05 09:10:04;;;;;;;1.22;0.40;;;4.20;99.90;;;;;;1917413;75;21055;-89
2022/01/05 09:12:57;;;;;;;0.60;0.47;;;4.00;99.90;;;;;;1917718;75;21094;-89
2022/01/05 09:15:50;;;;;;;0.88;0.57;;;3.80;99.90;;;;;;1919113;75;21101;-89
2022/01/05 09:18:42;;;;;;;0.40;0.30;;;3.90;99.90;;;;;;1932648;73;21030;-90
2022/01/05 09:21:36;;;;;;;1.70;0.88;;;4.00;99.90;;;;;;1917342;75;21118;-89
2022/01/05 09:27:07;;;;;;;0.68;0.40;;;4.10;99.90;;;;;;1948124;72;22239;-88
2022/01/05 09:30:00;;;;;;;0.60;0.50;;;4.10;99.90;;;;;;1904879;74;21172;-88
2022/01/05 09:35:34;;;;;;;1.22;0.60;;;4.20;99.90;;;;;;1958729;72;22111;-89
2022/01/05 09:38:36;;;;;;;0.82;0.30;;;4.20;99.90;;;;;;1916385;73;21104;-87
2022/01/05 09:44:33;;;;;;;1.05;0.40;;;4.30;99.90;;;;;;1905119;75;21143;-87
2022/01/05 09:48:08;;;;;;;1.52;0.50;;;4.30;99.90;;;;;;1905042;75;21581;-88
2022/01/05 09:56:21;;;;;;;0.93;0.50;;;4.20;99.90;;;;;;1946051;72;22123;-90
2022/01/05 09:59:13;;;;;;;1.55;0.47;;;4.10;99.90;;;;;;1913040;74;21189;-88
2022/01/05 10:02:06;;;;;;;0.65;0.45;;;4.20;99.90;;;;;;1915866;74;21180;-91
2022/01/05 10:07:38;;;;;;;2.12;0.75;;;4.20;99.90;;;;;;1925386;72;22295;-90
2022/01/05 10:10:31;;;;;;;1.98;0.72;;;4.00;99.90;;;;;;1903458;75;21121;-87
2022/01/05 10:16:01;;;;;;;0.75;0.50;;;3.90;99.90;;;;;;1952087;72;22095;-86
2022/01/05 10:18:53;;;;;;;1.12;0.62;;;3.90;99.90;;;;;;1887791;75;21188;-88
2022/01/05 10:21:44;;;;;;;1.98;0.60;;;3.90;99.90;;;;;;1883582;75;21059;-87
2022/01/05 10:27:24;;;;;;;2.10;0.75;;;3.90;99.90;;;;;;1942584;72;22123;-87
2022/01/05 10:30:17;;;;;;;2.30;0.68;;;3.90;99.90;;;;;;1902378;75;21409;-87
2022/01/05 10:33:09;;;;;;;3.00;1.12;;;3.90;99.90;;;;;;1905511;75;21076;-87
2022/01/05 10:36:01;;;;;;;1.82;0.93;;;3.80;99.90;;;;;;1904038;75;21119;-87
2022/01/05 10:41:49;;;;;;;3.75;0.60;;;3.60;99.90;;;;;;1941803;72;22145;-87
2022/01/05 10:44:44;;;;;;;2.95;0.82;;;3.60;99.90;;;;;;1900686;74;21121;-86
2022/01/05 10:47:40;;;;;;;3.15;0.72;;;3.70;99.90;;;;;;1917364;75;21105;-85
2022/01/05 10:50:33;;;;;;;1.95;0.70;;;3.80;99.90;;;;;;1864357;76;21067;-87
2022/01/05 10:56:30;;;;;;;2.80;1.32;;;4.00;99.90;;;;;;1918084;72;28030;-87
2022/01/05 10:59:28;;;;;;;4.10;0.90;;;4.00;99.90;;;;;;1894745;75;21095;-87
2022/01/05 11:02:30;;;;;;;3.00;0.72;;;4.10;99.90;;;;;;1903646;75;21060;-88
2022/01/05 11:05:24;;;;;;;3.40;0.98;;;4.10;99.90;;;;;;1905474;75;21110;-89
2022/01/05 11:11:38;;;;;;;3.42;1.35;;;4.00;99.90;;;;;;1956874;72;22248;-87
2022/01/05 11:14:34;;;;;;;2.12;0.70;;;4.00;99.90;;;;;;1912427;74;21063;-86
2022/01/05 11:17:27;;;;;;;2.27;0.98;;;4.00;99.90;;;;;;1869445;77;21122;-86
2022/01/05 11:20:18;;;;;;;2.27;0.80;;;3.90;99.90;;;;;;1932115;74;21176;-88
2022/01/05 11:26:12;;;;;;;2.95;0.80;;;4.10;99.90;;;;;;1937214;72;22252;-87
2022/01/05 11:29:05;;;;;;;3.22;0.60;;;4.10;99.90;;;;;;1885327;75;21063;-87
2022/01/05 11:31:57;;;;;;;3.85;0.68;;;4.20;99.90;;;;;;1896494;75;21191;-87
2022/01/05 11:34:51;;;;;;;4.17;0.93;;;4.20;99.90;;;;;;1902164;75;21130;-88
2022/01/05 11:38:02;;;;;;;2.17;0.60;;;4.20;99.90;;;;;;1894805;75;21070;-88
2022/01/05 11:43:39;;;;;;;3.50;0.70;;;4.30;99.90;;;;;;1952972;72;22265;-87
2022/01/05 11:46:32;;;;;;;1.42;0.72;;;4.30;99.90;;;;;;1894512;75;21090;-88
2022/01/05 11:49:28;;;;;;;2.62;0.85;;;4.40;99.90;;;;;;1903718;75;21164;-87
2022/01/05 11:52:19;;;;;;;1.85;0.65;;;4.40;99.90;;;;;;1896154;75;21163;-86
2022/01/05 11:55:31;;;;;;;4.20;2.15;;;4.40;99.90;;;;;;1917055;75;21083;-87
2022/01/05 12:01:24;;;;;;;3.22;1.02;;;4.30;99.90;;;;;;1951388;72;22220;-88
2022/01/05 12:04:19;;;;;;;2.37;0.70;;;4.30;99.90;;;;;;1917176;75;21221;-88
2022/01/05 12:07:10;;;;;;;3.95;0.80;;;4.30;99.90;;;;;;1917412;75;21109;-88
2022/01/05 12:12:43;;;;;;;1.32;0.68;;;4.30;99.90;;;;;;1966603;72;22219;-88
2022/01/05 12:15:52;;;;;;;5.30;0.80;;;4.30;99.90;;;;;;1921052;74;21059;-88
2022/01/05 12:18:43;;;;;;;;;;;4.30;99.90;;;;;;1908784;73;21168;-87
2022/01/05 12:21:45;;;;;;;2.45;0.90;;;4.30;99.90;;;;;;1927732;74;20386;-89
2022/01/05 12:25:09;;;;;;;2.40;0.90;;;4.30;99.90;;;;;;1908112;74;21143;-88
2022/01/05 12:28:05;;;;;;;3.47;1.00;;;4.30;99.90;;;;;;1905320;74;21117;-90
2022/01/05 12:30:58;;;;;;;1.27;0.70;;;4.20;99.90;;;;;;1905200;75;21056;-87
2022/01/05 12:33:53;;;;;;;2.33;0.70;;;4.20;99.90;;;;;;1911185;74;21134;-88
2022/01/05 12:36:44;;;;;;;2.52;1.00;;;4.20;99.90;;;;;;1905553;74;21059;-87
2022/01/05 12:39:51;;;;;;;1.95;0.70;;;4.20;99.90;;;;;;1936129;74;21153;-88
2022/01/05 12:42:43;;;;;;;2.63;0.83;;;4.20;99.90;;;;;;1916312;74;21059;-86
2022/01/05 12:45:52;;;;;;;2.10;0.70;;;4.30;99.90;;;;;;1917916;74;21386;-88
2022/01/05 12:51:51;;;;;;;1.87;0.80;;;4.20;99.90;;;;;;1950834;72;22116;-87
2022/01/05 12:54:44;;;;;;;1.55;0.70;;;4.30;99.90;;;;;;1899671;75;21106;-86
2022/01/05 12:57:37;;;;;;;2.40;0.70;;;4.40;99.90;;;;;;1883288;75;21153;-89
2022/01/05 13:00:29;;;;;;;5.08;0.90;;;4.40;99.90;;;;;;1893144;75;21150;-87
2022/01/05 13:06:19;;;;;;;1.70;0.80;;;4.40;99.90;;;;;;1935592;72;22319;-87
2022/01/05 13:09:13;;;;;;;4.65;0.98;;;4.40;99.90;;;;;;1890186;75;21192;-87
2022/01/05 13:12:06;;;;;;;3.05;0.80;;;4.50;99.90;;;;;;1883613;75;21135;-88
2022/01/05 13:17:37;;;;;;;2.55;1.15;;;4.50;99.90;;;;;;1976154;72;22382;-88
2022/01/05 13:20:30;;;;;;;2.60;0.78;;;4.50;99.90;;;;;;1919958;73;21048;-89
2022/01/05 13:23:21;;;;;;;2.92;0.80;;;4.60;99.90;;;;;;1918810;73;21135;-87
2022/01/05 13:26:13;;;;;;;6.22;1.25;;;4.50;99.90;;;;;;1936337;73;21183;-87
2022/01/05 13:32:04;;;;;;;2.37;1.02;;;4.50;99.90;;;;;;1962823;72;22155;-88
2022/01/05 13:35:05;;;;;;;2.25;0.90;;;4.50;99.90;;;;;;1915604;75;21041;-88
2022/01/05 13:37:59;;;;;;;2.33;0.80;;;4.40;99.90;;;;;;1895509;74;21066;-87
2022/01/05 13:40:54;;;;;;;2.37;0.78;;;4.50;99.90;;;;;;1898177;75;21076;-88
2022/01/05 13:46:44;;;;;;;2.27;0.80;;;4.70;99.90;;;;;;1957782;72;22107;-87
2022/01/05 13:49:35;;;;;;;3.77;1.12;;;4.80;99.90;;;;;;1903729;75;21055;-87
2022/01/05 13:52:31;;;;;;;2.77;0.98;;;4.80;99.90;;;;;;1894520;75;21102;-86
2022/01/05 13:55:25;;;;;;;1.90;0.70;;;4.80;99.90;;;;;;1902725;75;21205;-87
2022/01/05 13:58:37;;;;;;;4.58;1.20;;;4.80;99.90;;;;;;1895585;75;21031;-86
2022/01/05 14:01:29;;;;;;;1.98;0.80;;;4.80;99.90;;;;;;1886054;75;21158;-86
2022/01/05 14:04:21;;;;;;;6.30;1.20;;;4.80;99.90;;;;;;1887251;75;21099;-86
2022/01/05 14:07:18;;;;;;;1.57;0.62;;;4.80;99.90;;;;;;1905308;75;21103;-87
2022/01/05 14:12:51;;;;;;;2.27;0.68;;;4.90;99.90;;;;;;1943726;72;22155;-86
2022/01/05 14:15:44;;;;;;;3.45;0.82;;;5.00;99.90;;;;;;1917337;75;21051;-87
2022/01/05 14:21:32;;;;;;;2.00;0.82;;;5.10;99.90;;;;;;1953597;72;22134;-87
2022/01/05 14:24:32;;;;;;;2.45;0.60;;;5.10;99.90;;;;;;1919900;74;21143;-86
2022/01/05 14:30:07;;;;;;;1.57;0.60;;;5.20;99.90;;;;;;1932451;72;22158;-87
2022/01/05 14:33:00;;;;;;;1.80;0.60;;;5.20;99.90;;;;;;1906752;75;21107;-87
2022/01/05 14:35:52;;;;;;;3.67;0.72;;;5.20;99.90;;;;;;1902133;75;21047;-86
2022/01/05 14:41:42;;;;;;;4.05;0.90;;;5.10;99.90;;;;;;1944445;72;22241;-86
2022/01/05 14:44:36;;;;;;;1.72;0.60;;;5.10;99.90;;;;;;1923943;74;21375;-86
2022/01/05 14:47:31;;;;;;;2.55;0.80;;;5.10;99.90;;;;;;1905162;75;21193;-86
2022/01/05 14:50:22;;;;;;;2.35;0.80;;;5.10;99.90;;;;;;1905168;75;21136;-86
2022/01/05 14:53:32;;;;;;;2.27;0.78;;;5.20;99.90;;;;;;1913790;74;21085;-86
2022/01/05 14:56:24;;;;;;;1.07;0.60;;;5.20;99.90;;;;;;1927637;74;21111;-87
2022/01/05 14:59:17;;;;;;;2.33;0.72;;;5.10;99.90;;;;;;1904492;75;21098;-86
2022/01/05 15:02:09;;;;;;;1.32;0.60;;;5.20;99.90;;;;;;1905014;74;21101;-87
2022/01/05 15:05:03;;;;;;;2.30;0.50;;;5.30;99.90;;;;;;1910218;74;21172;-87
2022/01/05 15:15:57;;;;;;;1.60;0.60;;;5.30;99.90;;;;;;1964191;72;22249;-87
2022/01/05 15:18:48;;;;;;;1.37;0.53;;;5.40;99.90;;;;;;1921889;73;21102;-88
2022/01/05 15:21:40;;;;;;;1.85;0.53;;;5.40;99.90;;;;;;1917490;75;21087;-88
2022/01/05 15:24:31;;;;;;;2.30;0.80;;;5.50;99.90;;;;;;1935670;73;21164;-87
2022/01/05 15:27:42;;;;;;;1.27;0.40;;;5.40;99.90;;;;;;1933412;73;21059;-88
2022/01/05 15:30:33;;;;;;;2.95;0.60;;;5.30;99.90;;;;;;1926770;73;21133;-87
2022/01/05 15:36:05;;;;;;;1.92;0.50;;;5.20;99.90;;;;;;1954238;72;22238;-87
2022/01/05 15:41:40;;;;;;;4.35;1.00;;;5.20;99.90;;;;;;1945278;72;22208;-87
2022/01/05 15:44:31;;;;;;;2.95;0.70;;;5.20;99.90;;;;;;1907370;75;21252;-87
2022/01/05 15:47:23;;;;;;;2.72;0.70;;;5.20;99.90;;;;;;1904654;75;21051;-87
2022/01/05 15:50:16;;;;;;;2.00;0.82;;;5.10;99.90;;;;;;1887837;75;21148;-87
2022/01/05 15:56:14;;;;;;;2.00;0.60;;;4.90;99.90;;;;;;1933481;72;22253;-87
2022/01/05 16:02:13;;;;;;;3.70;1.12;;;5.20;99.90;;;;;;1895332;75;21569;-87
2022/01/05 16:05:06;;;;;;;2.52;0.60;;;5.10;99.90;;;;;;1913521;75;21095;-88
2022/01/05 16:11:40;;;;;;;1.57;0.40;;;4.90;99.90;;;;;;1855021;75;21171;-87
2022/01/05 16:14:35;;;;;;;1.98;0.60;;;4.90;99.90;;;;;;1892877;75;21050;-87
2022/01/05 16:17:26;;;;;;;2.42;0.90;;;5.00;99.90;;;;;;1884581;75;21147;-87
2022/01/05 16:22:57;;;;;;;2.55;0.70;;;5.10;99.90;;;;;;1954724;72;22180;-87
2022/01/05 16:25:48;;;;;;;3.47;0.80;;;4.90;99.90;;;;;;1896831;75;21865;-87
2022/01/05 16:28:41;;;;;;;2.33;0.82;;;4.90;99.90;;;;;;1887702;75;21074;-87
2022/01/05 16:32:54;;;;;;;;;;;;;;;;;;;;;
2022/01/05 16:36:18;;;;;;;3.08;0.75;;;4.80;99.90;;;;;;1905246;75;21067;-87
2022/01/05 16:55:49;;;;;;;1.17;0.40;;;4.70;99.90;;;;;;1944057;72;22171;-87
2022/01/05 17:01:49;;;;;;;1.47;0.60;;;4.90;99.90;;;;;;1889876;75;21089;-87
2022/01/05 17:04:41;;;;;;;3.30;0.75;;;4.80;99.90;;;;;;1889086;75;21096;-87
2022/01/05 17:07:54;;;;;;;3.42;0.55;;;4.70;99.90;;;;;;1883906;75;21098;-86
2022/01/05 17:10:46;;;;;;;2.08;0.57;;;4.80;99.90;;;;;;1900676;75;21048;-86
2022/01/05 17:13:38;;;;;;;1.40;0.65;;;4.70;99.90;;;;;;1883757;75;21092;-88
2022/01/05 17:22:00;;;;;;;2.12;0.55;;;4.60;99.90;;;;;;1953361;72;22150;-87
2022/01/05 17:24:52;;;;;;;3.00;0.50;;;4.50;99.90;;;;;;1906686;75;21052;-87
2022/01/05 17:27:45;;;;;;;1.80;0.70;;;4.60;99.90;;;;;;1901124;75;21536;-88
2022/01/05 17:30:40;;;;;;;2.58;0.60;;;4.60;99.90;;;;;;1884705;76;21118;-87
2022/01/05 17:36:31;;;;;;;2.30;0.75;;;4.60;99.90;;;;;;1948948;72;22197;-88
2022/01/05 17:42:03;;;;;;;1.30;0.60;;;4.50;99.90;;;;;;1958255;72;22131;-88
2022/01/05 17:44:55;;;;;;;1.52;0.80;;;4.60;99.90;;;;;;1901318;75;21067;-88
2022/01/05 17:47:47;;;;;;;1.70;0.50;;;4.50;99.90;;;;;;1883425;75;21066;-87
2022/01/05 17:55:57;;;;;;;1.85;0.62;;;4.70;99.90;;;;;;1940447;72;22128;-87
2022/01/05 17:58:48;;;;;;;2.37;0.90;;;4.70;99.90;;;;;;1893701;75;21114;-86
2022/01/05 18:01:41;;;;;;;1.80;0.62;;;4.80;99.90;;;;;;1888763;75;21092;-87
2022/01/05 18:04:33;;;;;;;3.58;0.60;;;4.70;99.90;;;;;;1903501;75;21172;-88
2022/01/05 18:07:43;;;;;;;3.12;0.70;;;4.70;99.90;;;;;;1883719;75;21090;-86
2022/01/05 18:10:35;;;;;;;1.35;0.70;;;4.80;99.90;;;;;;1894394;75;21136;-87
2022/01/05 18:13:27;;;;;;;1.85;0.70;;;4.80;99.90;;;;;;1873060;76;21573;-87
2022/01/05 18:16:26;;;;;;;3.30;0.70;;;4.80;99.90;;;;;;1889200;75;21616;-87
2022/01/05 18:19:16;;;;;;;2.02;0.75;;;4.70;99.90;;;;;;1886973;75;21141;-87
2022/01/05 18:22:08;;;;;;;1.60;0.60;;;4.80;99.90;;;;;;1897348;75;21118;-87
2022/01/05 18:24:59;;;;;;;1.52;0.50;;;4.80;99.90;;;;;;1896242;75;21141;-87
2022/01/05 18:27:51;;;;;;;2.62;0.70;;;4.90;99.90;;;;;;1891773;75;21044;-87
2022/01/05 18:30:42;;;;;;;2.50;0.90;;;5.00;99.90;;;;;;1908934;73;21153;-87
2022/01/05 18:36:13;;;;;;;1.90;0.88;;;4.60;99.90;;;;;;1933908;72;22252;-88
2022/01/05 18:56:31;;;;;;;1.32;0.70;;;4.40;99.90;;;;;;1957984;72;22230;-88
2022/01/05 18:59:22;;;;;;;3.83;0.82;;;4.50;99.90;;;;;;1902536;75;21192;-86
2022/01/05 19:02:14;;;;;;;2.70;0.80;;;4.50;99.90;;;;;;1891752;75;21063;-86
2022/01/05 19:07:45;;;;;;;2.98;1.02;;;4.60;99.90;;;;;;1943322;72;22150;-87
2022/01/05 19:10:36;;;;;;;2.58;0.90;;;4.50;99.90;;;;;;1921316;73;21121;-88
2022/01/05 19:13:29;;;;;;;5.62;1.35;;;4.40;99.90;;;;;;1929752;73;21074;-87
2022/01/05 19:16:21;;;;;;;2.05;0.80;;;4.40;99.90;;;;;;1934186;73;21082;-87
2022/01/05 19:19:34;;;;;;;2.77;1.07;;;4.40;99.90;;;;;;1929753;73;21108;-87
2022/01/05 19:22:27;;;;;;;3.37;1.20;;;4.30;99.90;;;;;;1917796;75;21122;-87
2022/01/05 19:25:18;;;;;;;2.17;0.65;;;4.30;99.90;;;;;;1918470;73;21185;-89
2022/01/05 19:28:16;;;;;;;2.42;0.80;;;4.30;99.90;;;;;;1918557;73;21168;-88
2022/01/05 19:31:05;;;;;;;4.05;1.10;;;4.30;99.90;;;;;;1951644;73;21515;-87
2022/01/05 19:33:56;;;;;;;2.30;0.90;;;4.20;99.90;;;;;;1931549;73;21529;-87
2022/01/05 19:36:49;;;;;;;1.72;0.90;;;4.20;99.90;;;;;;1917740;75;21060;-87
2022/01/05 19:39:40;;;;;;;1.92;0.78;;;4.10;99.90;;;;;;1922651;73;21091;-87
2022/01/05 19:42:32;;;;;;;1.92;0.88;;;4.10;99.90;;;;;;1938882;73;21083;-88
2022/01/05 19:45:23;;;;;;;1.15;0.70;;;4.00;99.90;;;;;;1937222;73;21047;-87
2022/01/05 19:51:02;;;;;;;2.83;0.98;;;4.10;99.90;;;;;;1952846;72;22126;-88
2022/01/05 19:53:55;;;;;;;5.00;1.35;;;4.00;99.90;;;;;;1930323;73;21379;-87
2022/01/05 19:56:50;;;;;;;3.40;0.90;;;3.90;99.90;;;;;;1934208;73;21098;-87
2022/01/05 19:59:42;;;;;;;1.85;0.70;;;4.00;99.90;;;;;;1939450;73;21102;-87
2022/01/05 20:02:52;;;;;;;4.08;1.00;;;4.10;99.90;;;;;;1917776;75;21074;-88
2022/01/05 20:05:44;;;;;;;4.55;0.90;;;4.10;99.90;;;;;;1940431;73;21588;-87
2022/01/05 20:08:41;;;;;;;3.15;1.02;;;4.10;99.90;;;;;;1917579;75;21654;-87
2022/01/05 20:11:29;;;;;;;1.98;0.80;;;4.10;99.90;;;;;;1917806;75;21058;-88
2022/01/05 20:14:20;;;;;;;5.40;0.90;;;4.00;99.90;;;;;;1929974;73;21153;-88
2022/01/05 20:17:17;;;;;;;3.02;0.88;;;4.00;99.90;;;;;;1921324;73;21157;-86
2022/01/05 20:20:09;;;;;;;4.62;0.90;;;4.10;99.90;;;;;;1940162;73;21054;-87
2022/01/05 20:23:00;;;;;;;2.62;0.80;;;4.00;99.90;;;;;;1917681;75;21172;-87
2022/01/05 20:25:52;;;;;;;4.30;0.95;;;4.00;99.90;;;;;;1917700;75;21059;-87
2022/01/05 20:28:43;;;;;;;2.25;0.90;;;3.90;99.90;;;;;;1917575;75;21060;-86
2022/01/05 20:31:36;;;;;;;2.15;0.78;;;4.00;99.90;;;;;;1934429;73;21121;-87
2022/01/05 20:39:57;;;;;;;3.22;0.93;;;3.90;99.90;;;;;;1969100;72;22225;-87
2022/01/05 20:42:49;;;;;;;2.12;1.00;;;3.90;99.90;;;;;;1940121;73;21125;-87